sensor_id;sensor_type;location;lat;lon;timestamp;P1;durP1;ratioP1;P2;durP2;ratioP2
69985;SDS011;57328;52.054;5.294;2022-12-17T00:02:33;41.40;;;15.57;;
69985;SDS011;57328;52.054;5.294;2022-12-17T00:05:19;44.15;;;14.23;;
69985;SDS011;57328;52.054;5.294;2022-12-17T00:08:21;31.80;;;11.90;;
69985;SDS011;57328;52.054;5.294;2022-12-17T00:11:07;35.50;;;13.88;;
69985;SDS011;57328;52.054;5.294;2022-12-17T00:13:53;35.00;;;13.85;;
69985;SDS011;57328;52.054;5.294;2022-12-17T00:16:38;37.72;;;14.50;;
69985;SDS011;57328;52.054;5.294;2022-12-17T00:19:24;35.08;;;13.50;;
69985;SDS011;57328;52.054;5.294;2022-12-17T00:22:10;42.10;;;16.65;;
69985;SDS011;57328;52.054;5.294;2022-12-17T00:24:56;38.85;;;15.75;;
69985;SDS011;57328;52.054;5.294;2022-12-17T00:27:42;36.72;;;13.27;;
69985;SDS011;57328;52.054;5.294;2022-12-17T00:30:28;34.08;;;12.45;;
69985;SDS011;57328;52.054;5.294;2022-12-17T00:33:14;26.92;;;11.20;;
69985;SDS011;57328;52.054;5.294;2022-12-17T00:36:00;32.08;;;11.30;;
69985;SDS011;57328;52.054;5.294;2022-12-17T00:39:00;39.72;;;16.00;;
69985;SDS011;57328;52.054;5.294;2022-12-17T00:41:46;36.22;;;14.25;;
69985;SDS011;57328;52.054;5.294;2022-12-17T00:44:32;31.58;;;11.85;;
69985;SDS011;57328;52.054;5.294;2022-12-17T00:47:18;39.45;;;15.77;;
69985;SDS011;57328;52.054;5.294;2022-12-17T00:50:04;37.38;;;14.40;;
69985;SDS011;57328;52.054;5.294;2022-12-17T00:52:51;46.15;;;17.33;;
69985;SDS011;57328;52.054;5.294;2022-12-17T00:55:37;36.85;;;14.27;;
69985;SDS011;57328;52.054;5.294;2022-12-17T00:58:23;37.08;;;13.20;;
69985;SDS011;57328;52.054;5.294;2022-12-17T01:01:09;40.08;;;15.45;;
69985;SDS011;57328;52.054;5.294;2022-12-17T01:03:55;46.20;;;16.33;;
69985;SDS011;57328;52.054;5.294;2022-12-17T01:06:41;36.67;;;13.77;;
69985;SDS011;57328;52.054;5.294;2022-12-17T01:09:27;32.35;;;12.38;;
69985;SDS011;57328;52.054;5.294;2022-12-17T01:12:13;32.65;;;11.68;;
69985;SDS011;57328;52.054;5.294;2022-12-17T01:14:59;46.67;;;15.23;;
69985;SDS011;57328;52.054;5.294;2022-12-17T01:17:44;40.22;;;14.13;;
69985;SDS011;57328;52.054;5.294;2022-12-17T01:20:30;36.53;;;13.93;;
69985;SDS011;57328;52.054;5.294;2022-12-17T01:23:17;44.75;;;16.15;;
69985;SDS011;57328;52.054;5.294;2022-12-17T01:26:04;38.65;;;13.52;;
69985;SDS011;57328;52.054;5.294;2022-12-17T01:28:49;35.10;;;13.13;;
69985;SDS011;57328;52.054;5.294;2022-12-17T01:31:36;28.17;;;10.70;;
69985;SDS011;57328;52.054;5.294;2022-12-17T01:34:22;30.15;;;10.63;;
69985;SDS011;57328;52.054;5.294;2022-12-17T01:37:07;40.50;;;15.20;;
69985;SDS011;57328;52.054;5.294;2022-12-17T01:39:53;43.13;;;15.73;;
69985;SDS011;57328;52.054;5.294;2022-12-17T01:42:41;34.25;;;12.43;;
69985;SDS011;57328;52.054;5.294;2022-12-17T01:45:27;39.00;;;14.15;;
69985;SDS011;57328;52.054;5.294;2022-12-17T01:48:16;36.13;;;13.52;;
69985;SDS011;57328;52.054;5.294;2022-12-17T01:51:02;37.38;;;13.52;;
69985;SDS011;57328;52.054;5.294;2022-12-17T01:53:49;33.60;;;11.75;;
69985;SDS011;57328;52.054;5.294;2022-12-17T01:56:36;31.88;;;11.45;;
69985;SDS011;57328;52.054;5.294;2022-12-17T01:59:24;39.30;;;14.70;;
69985;SDS011;57328;52.054;5.294;2022-12-17T02:02:14;42.55;;;16.08;;
69985;SDS011;57328;52.054;5.294;2022-12-17T02:05:00;37.15;;;13.70;;
69985;SDS011;57328;52.054;5.294;2022-12-17T02:07:50;35.17;;;12.73;;
69985;SDS011;57328;52.054;5.294;2022-12-17T02:10:48;35.42;;;12.60;;
69985;SDS011;57328;52.054;5.294;2022-12-17T02:13:45;39.55;;;13.75;;
69985;SDS011;57328;52.054;5.294;2022-12-17T02:16:40;42.65;;;14.95;;
69985;SDS011;57328;52.054;5.294;2022-12-17T02:25:16;34.40;;;12.25;;
69985;SDS011;57328;52.054;5.294;2022-12-17T02:28:07;38.88;;;13.48;;
69985;SDS011;57328;52.054;5.294;2022-12-17T02:30:54;38.85;;;13.70;;
69985;SDS011;57328;52.054;5.294;2022-12-17T02:33:40;37.50;;;13.82;;
69985;SDS011;57328;52.054;5.294;2022-12-17T02:36:26;39.95;;;14.20;;
69985;SDS011;57328;52.054;5.294;2022-12-17T02:39:12;33.85;;;12.90;;
69985;SDS011;57328;52.054;5.294;2022-12-17T02:41:58;34.25;;;12.40;;
69985;SDS011;57328;52.054;5.294;2022-12-17T02:44:44;42.42;;;14.02;;
69985;SDS011;57328;52.054;5.294;2022-12-17T02:47:30;30.48;;;10.75;;
69985;SDS011;57328;52.054;5.294;2022-12-17T02:50:16;29.45;;;12.23;;
69985;SDS011;57328;52.054;5.294;2022-12-17T02:53:02;35.50;;;12.13;;
69985;SDS011;57328;52.054;5.294;2022-12-17T02:55:48;37.00;;;14.00;;
69985;SDS011;57328;52.054;5.294;2022-12-17T02:58:34;38.22;;;13.30;;
69985;SDS011;57328;52.054;5.294;2022-12-17T03:01:20;42.97;;;15.45;;
69985;SDS011;57328;52.054;5.294;2022-12-17T03:04:06;33.53;;;12.55;;
69985;SDS011;57328;52.054;5.294;2022-12-17T03:06:52;26.90;;;9.50;;
69985;SDS011;57328;52.054;5.294;2022-12-17T03:09:38;31.75;;;11.70;;
69985;SDS011;57328;52.054;5.294;2022-12-17T03:12:24;37.40;;;14.35;;
69985;SDS011;57328;52.054;5.294;2022-12-17T03:15:10;39.03;;;14.50;;
69985;SDS011;57328;52.054;5.294;2022-12-17T03:17:56;34.92;;;13.02;;
69985;SDS011;57328;52.054;5.294;2022-12-17T03:20:42;38.72;;;14.70;;
69985;SDS011;57328;52.054;5.294;2022-12-17T03:23:28;40.53;;;14.52;;
69985;SDS011;57328;52.054;5.294;2022-12-17T03:26:14;38.13;;;14.43;;
69985;SDS011;57328;52.054;5.294;2022-12-17T03:29:00;41.72;;;15.57;;
69985;SDS011;57328;52.054;5.294;2022-12-17T03:31:46;39.15;;;15.38;;
69985;SDS011;57328;52.054;5.294;2022-12-17T03:34:32;31.55;;;11.57;;
69985;SDS011;57328;52.054;5.294;2022-12-17T03:37:18;39.45;;;14.60;;
69985;SDS011;57328;52.054;5.294;2022-12-17T03:40:04;41.83;;;15.50;;
69985;SDS011;57328;52.054;5.294;2022-12-17T03:42:50;35.63;;;14.13;;
69985;SDS011;57328;52.054;5.294;2022-12-17T03:45:36;43.33;;;15.55;;
69985;SDS011;57328;52.054;5.294;2022-12-17T03:48:22;34.13;;;12.63;;
69985;SDS011;57328;52.054;5.294;2022-12-17T03:51:08;40.50;;;15.35;;
69985;SDS011;57328;52.054;5.294;2022-12-17T03:53:54;39.75;;;14.82;;
69985;SDS011;57328;52.054;5.294;2022-12-17T03:56:40;41.42;;;15.73;;
69985;SDS011;57328;52.054;5.294;2022-12-17T03:59:26;29.38;;;11.98;;
69985;SDS011;57328;52.054;5.294;2022-12-17T04:02:12;32.47;;;12.80;;
69985;SDS011;57328;52.054;5.294;2022-12-17T04:04:58;38.42;;;13.13;;
69985;SDS011;57328;52.054;5.294;2022-12-17T04:07:45;41.00;;;14.32;;
69985;SDS011;57328;52.054;5.294;2022-12-17T04:10:31;43.38;;;16.10;;
69985;SDS011;57328;52.054;5.294;2022-12-17T04:13:19;38.45;;;14.70;;
69985;SDS011;57328;52.054;5.294;2022-12-17T04:16:06;42.58;;;16.20;;
69985;SDS011;57328;52.054;5.294;2022-12-17T04:18:52;39.80;;;16.10;;
69985;SDS011;57328;52.054;5.294;2022-12-17T04:21:38;38.72;;;16.13;;
69985;SDS011;57328;52.054;5.294;2022-12-17T04:24:24;38.25;;;14.43;;
69985;SDS011;57328;52.054;5.294;2022-12-17T04:27:10;41.90;;;15.35;;
69985;SDS011;57328;52.054;5.294;2022-12-17T04:29:56;38.22;;;15.65;;
69985;SDS011;57328;52.054;5.294;2022-12-17T04:32:42;34.40;;;13.10;;
69985;SDS011;57328;52.054;5.294;2022-12-17T04:35:28;40.92;;;15.43;;
69985;SDS011;57328;52.054;5.294;2022-12-17T04:38:14;38.97;;;15.25;;
69985;SDS011;57328;52.054;5.294;2022-12-17T04:41:00;40.40;;;15.48;;
69985;SDS011;57328;52.054;5.294;2022-12-17T04:43:46;44.83;;;17.70;;
69985;SDS011;57328;52.054;5.294;2022-12-17T04:46:31;41.13;;;14.30;;
69985;SDS011;57328;52.054;5.294;2022-12-17T04:49:17;36.63;;;14.48;;
69985;SDS011;57328;52.054;5.294;2022-12-17T04:52:03;23.70;;;9.35;;
69985;SDS011;57328;52.054;5.294;2022-12-17T04:54:49;40.05;;;14.90;;
69985;SDS011;57328;52.054;5.294;2022-12-17T04:57:35;42.28;;;15.60;;
69985;SDS011;57328;52.054;5.294;2022-12-17T05:00:21;38.63;;;13.93;;
69985;SDS011;57328;52.054;5.294;2022-12-17T05:03:11;41.35;;;14.73;;
69985;SDS011;57328;52.054;5.294;2022-12-17T05:05:58;47.92;;;15.88;;
69985;SDS011;57328;52.054;5.294;2022-12-17T05:08:44;39.80;;;14.48;;
69985;SDS011;57328;52.054;5.294;2022-12-17T05:11:29;38.53;;;14.63;;
69985;SDS011;57328;52.054;5.294;2022-12-17T05:14:16;35.17;;;13.70;;
69985;SDS011;57328;52.054;5.294;2022-12-17T05:17:02;40.08;;;13.93;;
69985;SDS011;57328;52.054;5.294;2022-12-17T05:19:48;37.65;;;15.27;;
69985;SDS011;57328;52.054;5.294;2022-12-17T05:22:34;45.47;;;16.70;;
69985;SDS011;57328;52.054;5.294;2022-12-17T05:25:19;35.80;;;14.73;;
69985;SDS011;57328;52.054;5.294;2022-12-17T05:28:05;38.47;;;14.88;;
69985;SDS011;57328;52.054;5.294;2022-12-17T05:30:52;41.83;;;16.50;;
69985;SDS011;57328;52.054;5.294;2022-12-17T05:33:38;40.75;;;14.70;;
69985;SDS011;57328;52.054;5.294;2022-12-17T05:36:24;41.72;;;16.27;;
69985;SDS011;57328;52.054;5.294;2022-12-17T05:39:10;46.35;;;16.35;;
69985;SDS011;57328;52.054;5.294;2022-12-17T05:41:56;41.05;;;15.98;;
69985;SDS011;57328;52.054;5.294;2022-12-17T05:44:42;34.72;;;13.77;;
69985;SDS011;57328;52.054;5.294;2022-12-17T05:47:28;38.25;;;15.02;;
69985;SDS011;57328;52.054;5.294;2022-12-17T05:50:14;41.75;;;16.02;;
69985;SDS011;57328;52.054;5.294;2022-12-17T05:53:03;33.22;;;12.55;;
69985;SDS011;57328;52.054;5.294;2022-12-17T05:55:49;38.13;;;13.65;;
69985;SDS011;57328;52.054;5.294;2022-12-17T05:58:35;40.03;;;14.32;;
69985;SDS011;57328;52.054;5.294;2022-12-17T06:01:21;36.30;;;14.65;;
69985;SDS011;57328;52.054;5.294;2022-12-17T06:04:08;41.20;;;15.32;;
69985;SDS011;57328;52.054;5.294;2022-12-17T06:06:54;33.05;;;13.05;;
69985;SDS011;57328;52.054;5.294;2022-12-17T06:09:39;39.13;;;15.15;;
69985;SDS011;57328;52.054;5.294;2022-12-17T06:12:25;29.63;;;11.57;;
69985;SDS011;57328;52.054;5.294;2022-12-17T06:15:11;43.00;;;16.73;;
69985;SDS011;57328;52.054;5.294;2022-12-17T06:17:57;40.25;;;15.45;;
69985;SDS011;57328;52.054;5.294;2022-12-17T06:20:44;41.40;;;17.17;;
69985;SDS011;57328;52.054;5.294;2022-12-17T06:23:30;40.05;;;16.50;;
69985;SDS011;57328;52.054;5.294;2022-12-17T06:26:20;38.70;;;15.07;;
69985;SDS011;57328;52.054;5.294;2022-12-17T06:29:06;35.92;;;13.70;;
69985;SDS011;57328;52.054;5.294;2022-12-17T06:31:51;38.38;;;13.38;;
69985;SDS011;57328;52.054;5.294;2022-12-17T06:34:37;39.78;;;15.80;;
69985;SDS011;57328;52.054;5.294;2022-12-17T06:37:23;38.30;;;15.32;;
69985;SDS011;57328;52.054;5.294;2022-12-17T06:40:09;41.25;;;15.35;;
69985;SDS011;57328;52.054;5.294;2022-12-17T06:42:55;42.10;;;15.95;;
69985;SDS011;57328;52.054;5.294;2022-12-17T06:45:50;46.38;;;17.27;;
69985;SDS011;57328;52.054;5.294;2022-12-17T06:48:36;49.45;;;17.48;;
69985;SDS011;57328;52.054;5.294;2022-12-17T06:51:21;44.03;;;16.75;;
69985;SDS011;57328;52.054;5.294;2022-12-17T06:54:07;47.28;;;17.65;;
69985;SDS011;57328;52.054;5.294;2022-12-17T06:56:53;43.90;;;16.77;;
69985;SDS011;57328;52.054;5.294;2022-12-17T06:59:39;41.80;;;16.48;;
69985;SDS011;57328;52.054;5.294;2022-12-17T07:02:25;47.10;;;17.50;;
69985;SDS011;57328;52.054;5.294;2022-12-17T07:05:11;44.25;;;15.02;;
69985;SDS011;57328;52.054;5.294;2022-12-17T07:07:58;39.83;;;14.95;;
69985;SDS011;57328;52.054;5.294;2022-12-17T07:10:51;50.90;;;17.88;;
69985;SDS011;57328;52.054;5.294;2022-12-17T07:13:37;43.60;;;17.23;;
69985;SDS011;57328;52.054;5.294;2022-12-17T07:16:23;48.00;;;18.05;;
69985;SDS011;57328;52.054;5.294;2022-12-17T07:19:09;47.42;;;17.80;;
69985;SDS011;57328;52.054;5.294;2022-12-17T07:21:55;47.03;;;17.27;;
69985;SDS011;57328;52.054;5.294;2022-12-17T07:24:41;37.15;;;13.07;;
69985;SDS011;57328;52.054;5.294;2022-12-17T07:27:26;55.13;;;19.38;;
69985;SDS011;57328;52.054;5.294;2022-12-17T07:30:12;50.65;;;17.83;;
69985;SDS011;57328;52.054;5.294;2022-12-17T07:32:59;48.78;;;17.80;;
69985;SDS011;57328;52.054;5.294;2022-12-17T07:35:45;51.70;;;18.55;;
69985;SDS011;57328;52.054;5.294;2022-12-17T07:38:32;52.58;;;17.85;;
69985;SDS011;57328;52.054;5.294;2022-12-17T07:41:18;43.28;;;16.40;;
69985;SDS011;57328;52.054;5.294;2022-12-17T07:44:04;52.55;;;18.27;;
69985;SDS011;57328;52.054;5.294;2022-12-17T07:46:50;54.17;;;18.70;;
69985;SDS011;57328;52.054;5.294;2022-12-17T07:49:36;50.90;;;18.92;;
69985;SDS011;57328;52.054;5.294;2022-12-17T07:52:22;34.53;;;13.38;;
69985;SDS011;57328;52.054;5.294;2022-12-17T07:55:08;44.85;;;16.33;;
69985;SDS011;57328;52.054;5.294;2022-12-17T07:58:06;52.50;;;17.35;;
69985;SDS011;57328;52.054;5.294;2022-12-17T08:00:52;58.60;;;19.75;;
69985;SDS011;57328;52.054;5.294;2022-12-17T08:03:38;50.53;;;16.63;;
69985;SDS011;57328;52.054;5.294;2022-12-17T08:06:24;42.05;;;14.07;;
69985;SDS011;57328;52.054;5.294;2022-12-17T08:09:10;49.95;;;16.25;;
69985;SDS011;57328;52.054;5.294;2022-12-17T08:11:56;54.05;;;19.35;;
69985;SDS011;57328;52.054;5.294;2022-12-17T08:14:42;52.72;;;19.98;;
69985;SDS011;57328;52.054;5.294;2022-12-17T08:17:28;53.47;;;18.98;;
69985;SDS011;57328;52.054;5.294;2022-12-17T08:20:14;52.33;;;19.05;;
69985;SDS011;57328;52.054;5.294;2022-12-17T08:23:00;54.33;;;17.58;;
69985;SDS011;57328;52.054;5.294;2022-12-17T08:25:47;57.25;;;19.30;;
69985;SDS011;57328;52.054;5.294;2022-12-17T08:28:33;55.88;;;19.17;;
69985;SDS011;57328;52.054;5.294;2022-12-17T08:31:19;61.08;;;18.50;;
69985;SDS011;57328;52.054;5.294;2022-12-17T08:34:05;43.00;;;15.50;;
69985;SDS011;57328;52.054;5.294;2022-12-17T08:36:51;48.58;;;17.38;;
69985;SDS011;57328;52.054;5.294;2022-12-17T08:39:37;56.10;;;20.65;;
69985;SDS011;57328;52.054;5.294;2022-12-17T08:42:23;36.63;;;12.63;;
69985;SDS011;57328;52.054;5.294;2022-12-17T08:45:09;60.80;;;20.77;;
69985;SDS011;57328;52.054;5.294;2022-12-17T08:48:04;41.45;;;14.45;;
69985;SDS011;57328;52.054;5.294;2022-12-17T08:50:51;55.22;;;19.48;;
69985;SDS011;57328;52.054;5.294;2022-12-17T08:53:37;52.70;;;18.40;;
69985;SDS011;57328;52.054;5.294;2022-12-17T08:56:23;55.28;;;18.05;;
69985;SDS011;57328;52.054;5.294;2022-12-17T08:59:09;47.92;;;17.02;;
69985;SDS011;57328;52.054;5.294;2022-12-17T09:01:55;53.95;;;17.98;;
69985;SDS011;57328;52.054;5.294;2022-12-17T09:04:41;33.22;;;11.85;;
69985;SDS011;57328;52.054;5.294;2022-12-17T09:07:27;51.40;;;17.48;;
69985;SDS011;57328;52.054;5.294;2022-12-17T09:10:13;50.08;;;17.83;;
69985;SDS011;57328;52.054;5.294;2022-12-17T09:13:02;47.50;;;16.55;;
69985;SDS011;57328;52.054;5.294;2022-12-17T09:15:52;55.42;;;18.35;;
69985;SDS011;57328;52.054;5.294;2022-12-17T09:18:38;49.17;;;16.42;;
69985;SDS011;57328;52.054;5.294;2022-12-17T09:21:25;44.30;;;15.05;;
69985;SDS011;57328;52.054;5.294;2022-12-17T09:24:11;46.55;;;16.90;;
69985;SDS011;57328;52.054;5.294;2022-12-17T09:26:57;53.53;;;16.92;;
69985;SDS011;57328;52.054;5.294;2022-12-17T09:29:43;55.83;;;17.60;;
69985;SDS011;57328;52.054;5.294;2022-12-17T09:32:29;50.75;;;17.10;;
69985;SDS011;57328;52.054;5.294;2022-12-17T09:35:15;57.42;;;18.80;;
69985;SDS011;57328;52.054;5.294;2022-12-17T09:38:01;46.35;;;15.90;;
69985;SDS011;57328;52.054;5.294;2022-12-17T09:40:48;63.90;;;23.02;;
69985;SDS011;57328;52.054;5.294;2022-12-17T09:43:41;57.75;;;18.67;;
69985;SDS011;57328;52.054;5.294;2022-12-17T09:49:33;56.58;;;19.23;;
69985;SDS011;57328;52.054;5.294;2022-12-17T09:52:23;51.63;;;17.05;;
69985;SDS011;57328;52.054;5.294;2022-12-17T09:55:20;50.85;;;16.77;;
69985;SDS011;57328;52.054;5.294;2022-12-17T09:58:27;45.33;;;16.48;;
69985;SDS011;57328;52.054;5.294;2022-12-17T10:01:15;49.90;;;16.10;;
69985;SDS011;57328;52.054;5.294;2022-12-17T10:04:06;48.78;;;16.17;;
69985;SDS011;57328;52.054;5.294;2022-12-17T10:06:55;51.55;;;18.50;;
69985;SDS011;57328;52.054;5.294;2022-12-17T10:09:41;51.08;;;16.30;;
69985;SDS011;57328;52.054;5.294;2022-12-17T10:12:27;49.15;;;18.67;;
69985;SDS011;57328;52.054;5.294;2022-12-17T10:15:13;48.22;;;18.30;;
69985;SDS011;57328;52.054;5.294;2022-12-17T10:18:06;37.35;;;13.60;;
69985;SDS011;57328;52.054;5.294;2022-12-17T10:20:58;49.20;;;18.40;;
69985;SDS011;57328;52.054;5.294;2022-12-17T10:23:44;52.17;;;17.75;;
69985;SDS011;57328;52.054;5.294;2022-12-17T10:26:31;39.90;;;14.40;;
69985;SDS011;57328;52.054;5.294;2022-12-17T10:29:30;46.50;;;15.55;;
69985;SDS011;57328;52.054;5.294;2022-12-17T10:38:09;51.17;;;18.40;;
69985;SDS011;57328;52.054;5.294;2022-12-17T10:40:55;51.25;;;17.65;;
69985;SDS011;57328;52.054;5.294;2022-12-17T10:43:41;30.13;;;9.98;;
69985;SDS011;57328;52.054;5.294;2022-12-17T10:46:28;50.22;;;15.13;;
69985;SDS011;57328;52.054;5.294;2022-12-17T10:49:15;48.72;;;16.13;;
69985;SDS011;57328;52.054;5.294;2022-12-17T10:52:06;57.20;;;16.67;;
69985;SDS011;57328;52.054;5.294;2022-12-17T10:55:00;54.78;;;18.73;;
69985;SDS011;57328;52.054;5.294;2022-12-17T10:57:47;40.88;;;13.57;;
69985;SDS011;57328;52.054;5.294;2022-12-17T11:00:38;50.67;;;16.05;;
69985;SDS011;57328;52.054;5.294;2022-12-17T11:03:26;48.88;;;16.25;;
69985;SDS011;57328;52.054;5.294;2022-12-17T11:06:14;56.85;;;17.10;;
69985;SDS011;57328;52.054;5.294;2022-12-17T11:09:11;52.10;;;16.92;;
69985;SDS011;57328;52.054;5.294;2022-12-17T11:11:59;58.08;;;20.52;;
69985;SDS011;57328;52.054;5.294;2022-12-17T11:14:55;49.92;;;16.23;;
69985;SDS011;57328;52.054;5.294;2022-12-17T11:17:42;48.95;;;17.05;;
69985;SDS011;57328;52.054;5.294;2022-12-17T11:20:43;50.25;;;17.13;;
69985;SDS011;57328;52.054;5.294;2022-12-17T11:23:30;45.35;;;15.15;;
69985;SDS011;57328;52.054;5.294;2022-12-17T11:26:18;54.95;;;17.25;;
69985;SDS011;57328;52.054;5.294;2022-12-17T11:29:04;57.47;;;16.30;;
69985;SDS011;57328;52.054;5.294;2022-12-17T11:37:37;56.55;;;18.08;;
69985;SDS011;57328;52.054;5.294;2022-12-17T11:43:17;53.35;;;17.73;;
69985;SDS011;57328;52.054;5.294;2022-12-17T11:46:09;42.15;;;13.52;;
69985;SDS011;57328;52.054;5.294;2022-12-17T11:54:36;52.85;;;17.30;;
69985;SDS011;57328;52.054;5.294;2022-12-17T11:57:41;45.65;;;16.40;;
69985;SDS011;57328;52.054;5.294;2022-12-17T12:00:34;51.55;;;15.25;;
69985;SDS011;57328;52.054;5.294;2022-12-17T12:06:17;49.05;;;15.93;;
69985;SDS011;57328;52.054;5.294;2022-12-17T12:12:09;54.33;;;19.20;;
69985;SDS011;57328;52.054;5.294;2022-12-17T12:14:57;46.67;;;15.32;;
69985;SDS011;57328;52.054;5.294;2022-12-17T12:17:50;50.90;;;16.88;;
69985;SDS011;57328;52.054;5.294;2022-12-17T12:26:22;56.63;;;15.85;;
69985;SDS011;57328;52.054;5.294;2022-12-17T12:32:11;61.38;;;17.13;;
69985;SDS011;57328;52.054;5.294;2022-12-17T12:35:02;51.45;;;16.80;;
69985;SDS011;57328;52.054;5.294;2022-12-17T12:37:48;59.22;;;19.30;;
69985;SDS011;57328;52.054;5.294;2022-12-17T12:43:21;57.17;;;19.50;;
69985;SDS011;57328;52.054;5.294;2022-12-17T12:46:23;54.00;;;16.38;;
69985;SDS011;57328;52.054;5.294;2022-12-17T12:51:59;59.45;;;18.13;;
69985;SDS011;57328;52.054;5.294;2022-12-17T12:57:35;53.75;;;16.98;;
69985;SDS011;57328;52.054;5.294;2022-12-17T13:03:17;35.08;;;10.10;;
69985;SDS011;57328;52.054;5.294;2022-12-17T13:06:05;58.20;;;18.20;;
69985;SDS011;57328;52.054;5.294;2022-12-17T13:08:32;54.33;;;17.13;;
69985;SDS011;57328;52.054;5.294;2022-12-17T13:13:58;54.10;;;16.35;;
69985;SDS011;57328;52.054;5.294;2022-12-17T13:16:31;55.00;;;17.73;;
69985;SDS011;57328;52.054;5.294;2022-12-17T13:19:00;53.70;;;17.73;;
69985;SDS011;57328;52.054;5.294;2022-12-17T13:21:27;50.97;;;17.52;;
69985;SDS011;57328;52.054;5.294;2022-12-17T13:23:56;54.45;;;18.50;;
69985;SDS011;57328;52.054;5.294;2022-12-17T13:29:11;46.80;;;15.38;;
69985;SDS011;57328;52.054;5.294;2022-12-17T13:34:17;54.92;;;18.35;;
69985;SDS011;57328;52.054;5.294;2022-12-17T13:36:48;51.13;;;18.45;;
69985;SDS011;57328;52.054;5.294;2022-12-17T13:41:51;58.30;;;20.33;;
69985;SDS011;57328;52.054;5.294;2022-12-17T13:44:23;61.97;;;23.85;;
69985;SDS011;57328;52.054;5.294;2022-12-17T13:46:52;64.32;;;21.25;;
69985;SDS011;57328;52.054;5.294;2022-12-17T13:49:26;56.75;;;20.67;;
69985;SDS011;57328;52.054;5.294;2022-12-17T13:52:01;59.90;;;21.10;;
69985;SDS011;57328;52.054;5.294;2022-12-17T13:54:36;60.53;;;19.65;;
69985;SDS011;57328;52.054;5.294;2022-12-17T13:57:12;59.88;;;20.50;;
69985;SDS011;57328;52.054;5.294;2022-12-17T13:59:40;62.38;;;20.70;;
69985;SDS011;57328;52.054;5.294;2022-12-17T14:02:33;51.33;;;16.45;;
69985;SDS011;57328;52.054;5.294;2022-12-17T14:05:05;55.45;;;20.30;;
69985;SDS011;57328;52.054;5.294;2022-12-17T14:07:34;57.15;;;21.85;;
69985;SDS011;57328;52.054;5.294;2022-12-17T14:10:04;57.42;;;17.23;;
69985;SDS011;57328;52.054;5.294;2022-12-17T14:12:32;57.13;;;18.95;;
69985;SDS011;57328;52.054;5.294;2022-12-17T14:15:01;55.53;;;17.30;;
69985;SDS011;57328;52.054;5.294;2022-12-17T14:17:39;60.05;;;18.02;;
69985;SDS011;57328;52.054;5.294;2022-12-17T14:23:26;46.42;;;15.85;;
69985;SDS011;57328;52.054;5.294;2022-12-17T14:25:41;55.85;;;17.23;;
69985;SDS011;57328;52.054;5.294;2022-12-17T14:30:45;42.45;;;12.25;;
69985;SDS011;57328;52.054;5.294;2022-12-17T14:33:36;57.20;;;18.63;;
69985;SDS011;57328;52.054;5.294;2022-12-17T14:38:53;62.28;;;13.98;;
69985;SDS011;57328;52.054;5.294;2022-12-17T14:41:26;55.17;;;17.17;;
69985;SDS011;57328;52.054;5.294;2022-12-17T14:44:17;45.80;;;14.88;;
69985;SDS011;57328;52.054;5.294;2022-12-17T14:46:47;48.88;;;16.15;;
69985;SDS011;57328;52.054;5.294;2022-12-17T14:49:15;58.08;;;18.02;;
69985;SDS011;57328;52.054;5.294;2022-12-17T14:51:43;61.60;;;19.65;;
69985;SDS011;57328;52.054;5.294;2022-12-17T14:54:26;58.33;;;18.35;;
69985;SDS011;57328;52.054;5.294;2022-12-17T14:56:58;53.35;;;18.35;;
69985;SDS011;57328;52.054;5.294;2022-12-17T15:01:53;52.67;;;18.23;;
69985;SDS011;57328;52.054;5.294;2022-12-17T15:04:21;51.70;;;16.15;;
69985;SDS011;57328;52.054;5.294;2022-12-17T15:06:49;50.35;;;17.15;;
69985;SDS011;57328;52.054;5.294;2022-12-17T15:09:18;50.95;;;16.13;;
69985;SDS011;57328;52.054;5.294;2022-12-17T15:11:46;54.92;;;17.20;;
69985;SDS011;57328;52.054;5.294;2022-12-17T15:14:14;37.35;;;12.63;;
69985;SDS011;57328;52.054;5.294;2022-12-17T15:16:41;52.30;;;17.48;;
69985;SDS011;57328;52.054;5.294;2022-12-17T15:19:08;61.33;;;17.17;;
69985;SDS011;57328;52.054;5.294;2022-12-17T15:21:35;65.35;;;18.90;;
69985;SDS011;57328;52.054;5.294;2022-12-17T15:24:03;54.33;;;17.30;;
69985;SDS011;57328;52.054;5.294;2022-12-17T15:26:30;50.20;;;16.40;;
69985;SDS011;57328;52.054;5.294;2022-12-17T15:28:58;50.90;;;17.30;;
69985;SDS011;57328;52.054;5.294;2022-12-17T15:31:25;50.97;;;16.90;;
69985;SDS011;57328;52.054;5.294;2022-12-17T15:34:00;49.22;;;14.77;;
69985;SDS011;57328;52.054;5.294;2022-12-17T15:36:28;51.20;;;17.30;;
69985;SDS011;57328;52.054;5.294;2022-12-17T15:38:57;58.55;;;16.45;;
69985;SDS011;57328;52.054;5.294;2022-12-17T15:41:24;54.08;;;17.30;;
69985;SDS011;57328;52.054;5.294;2022-12-17T15:44:10;52.38;;;14.90;;
69985;SDS011;57328;52.054;5.294;2022-12-17T15:46:38;53.45;;;16.88;;
69985;SDS011;57328;52.054;5.294;2022-12-17T15:49:05;54.47;;;16.85;;
69985;SDS011;57328;52.054;5.294;2022-12-17T15:51:32;47.05;;;15.55;;
69985;SDS011;57328;52.054;5.294;2022-12-17T15:53:59;59.70;;;18.45;;
69985;SDS011;57328;52.054;5.294;2022-12-17T15:56:27;53.88;;;16.90;;
69985;SDS011;57328;52.054;5.294;2022-12-17T15:58:57;56.60;;;16.92;;
69985;SDS011;57328;52.054;5.294;2022-12-17T16:01:24;56.72;;;17.98;;
69985;SDS011;57328;52.054;5.294;2022-12-17T16:03:52;67.82;;;19.60;;
69985;SDS011;57328;52.054;5.294;2022-12-17T16:06:19;51.30;;;17.20;;
69985;SDS011;57328;52.054;5.294;2022-12-17T16:08:46;59.72;;;19.15;;
69985;SDS011;57328;52.054;5.294;2022-12-17T16:11:14;60.95;;;17.75;;
69985;SDS011;57328;52.054;5.294;2022-12-17T16:13:41;59.17;;;18.65;;
69985;SDS011;57328;52.054;5.294;2022-12-17T16:16:08;60.83;;;18.17;;
69985;SDS011;57328;52.054;5.294;2022-12-17T16:18:36;56.60;;;18.15;;
69985;SDS011;57328;52.054;5.294;2022-12-17T16:21:07;58.42;;;18.30;;
69985;SDS011;57328;52.054;5.294;2022-12-17T16:23:35;54.60;;;17.67;;
69985;SDS011;57328;52.054;5.294;2022-12-17T16:26:06;59.95;;;20.20;;
69985;SDS011;57328;52.054;5.294;2022-12-17T16:28:34;69.25;;;21.67;;
69985;SDS011;57328;52.054;5.294;2022-12-17T16:31:03;42.25;;;14.35;;
69985;SDS011;57328;52.054;5.294;2022-12-17T16:33:34;60.58;;;18.77;;
69985;SDS011;57328;52.054;5.294;2022-12-17T16:36:07;49.55;;;15.15;;
69985;SDS011;57328;52.054;5.294;2022-12-17T16:38:35;48.85;;;14.90;;
69985;SDS011;57328;52.054;5.294;2022-12-17T16:41:07;49.05;;;16.58;;
69985;SDS011;57328;52.054;5.294;2022-12-17T16:43:35;59.95;;;19.02;;
69985;SDS011;57328;52.054;5.294;2022-12-17T16:46:02;55.13;;;17.13;;
69985;SDS011;57328;52.054;5.294;2022-12-17T16:48:37;58.65;;;17.40;;
69985;SDS011;57328;52.054;5.294;2022-12-17T16:51:13;69.88;;;20.50;;
69985;SDS011;57328;52.054;5.294;2022-12-17T16:53:46;66.38;;;19.30;;
69985;SDS011;57328;52.054;5.294;2022-12-17T16:56:14;56.92;;;17.30;;
69985;SDS011;57328;52.054;5.294;2022-12-17T16:58:42;54.70;;;16.83;;
69985;SDS011;57328;52.054;5.294;2022-12-17T17:01:09;54.22;;;17.00;;
69985;SDS011;57328;52.054;5.294;2022-12-17T17:03:40;56.75;;;17.10;;
69985;SDS011;57328;52.054;5.294;2022-12-17T17:06:08;62.70;;;18.73;;
69985;SDS011;57328;52.054;5.294;2022-12-17T17:08:36;64.15;;;17.33;;
69985;SDS011;57328;52.054;5.294;2022-12-17T17:11:08;60.20;;;19.55;;